KDTN/DTN METAR and TAF weather

Enter ICAO airport designator
Station Type Date Time Source
KDTN METAR 2018/10/16 19:53 UTC NOAA

KDTN 161953Z 02006KT 10SM OVC008 12/10 A3016 RMK AO2 RAE25 SLP211 P0004 T01170100


Station Type Date Time Source
KDTN Decoded METAR 2018/10/16 19:53 UTC NOAA

SHREVEPORT DOWNTOWN AIRPORT, LA, United States (KDTN) 32-32N 093-45W 53M
Oct 16, 2018 - 03:53 PM EDT / 2018.10.16 1953 UTC
Wind: from the NNE (020 degrees) at 7 MPH (6 KT):0
Visibility: 10 mile(s):0
Sky conditions: overcast
Precipitation last hour: 0.04 inches
Temperature: 53.1 F (11.7 C)
Dew Point: 50.0 F (10.0 C)
Relative Humidity: 89%
Pressure (altimeter): 30.16 in. Hg (1021 hPa)
ob: KDTN 161953Z 02006KT 10SM OVC008 12/10 A3016 RMK AO2 RAE25 SLP211 P0004 T01170100
cycle: 20

Station Type Date Time Source
KDTN TAF UTC NOAA

Error!


Example: see airport list